Amalga, UT

10:23 PM MDT on July 07, 2015 (GMT -0600)
Northwest Smithfield | | Change Station
CLOSE
Current Station
Personal Weather Station
Location: Smithfield, UT
Elevation: 4590 ft
Nearby Weather Stations

Elev 4590 ft 41.84 °N, 111.84 °W | Updated 9 minutes ago

Partly Cloudy
Partly Cloudy
68.7 °F
Feels Like 68.7 °F
N
1.7
Wind Variable Wind from ESE

Today
High -- | Low -- °F
--% Chance of Precip.
Yesterday
High -- | Low -- °F
Precip. -- in
5:59 AM 9:04 PM
Waning Gibbous, 58% visible
Pressure 29.82 in
Visibility 10.0 miles
Clouds Clear
Dew Point 54 °F
Humidity 60%
Rainfall 0.00 in
Snow Depth Not available.
UV 0 out of 12
Pollen 5.50 out of 12
Air Quality Not available.
Flu Activity Not available.
METAR KLGU 080351Z AUTO 18011KT 10SM CLR 22/11 A2997 RMK AO2 SLP096 T02220106 TSNO

More Conditions Fewer Conditions

Pressure 29.82 in
Visibility 10.0 miles
Clouds Clear
Dew Point 54 °F
Humidity 60%
Rainfall 0.00 in
Snow Depth Not available.
UV 0 out of 12
Pollen 5.50 out of 12
Air Quality Not available.
Flu Activity Not available.
METAR KLGU 080351Z AUTO 18011KT 10SM CLR 22/11 A2997 RMK AO2 SLP096 T02220106 TSNO

More Conditions Fewer Conditions

10-Day Weather Forecast

×

Almanac

Astronomy

Jul. 07, 2015 Rise Set
Actual Time
Civil Twilight
Nautical Twilight
Astronomical Twilight
Moon
Length of Visible Light
Length of Day
Tomorrow will be .
, % of the Moon is Illuminated

Today's Extremes

State Highs State Lows

Community

WunderPhotos

Upload Photos

1,836,050 photos uploaded!

WunderBlogs® & News

Nearby

Air Quality

  Air Quality AQ Index Pollutant
Not available.

Snow Depth

Station Depth Elevation

Earthquake Activity

City Distance Mag. Time & Date
Minimum magnitude displayed is 2.5.

Coastal Water Temperatures

Place Temperature

Stations

Nearby Weather Stations

Station Location Temp. Windchill Dew Point Humidity Wind Precip. Elev Updated Type